This is the latest recevied weather packets stored in our database for station/object F4AMY-13. If no packets are shown the sender has not sent any weather packets the latest 10 day(s).
| Time | Temp. | Humidity | Pressure | Rain* | Wind** | Luminosity | Snow |
|---|---|---|---|---|---|---|---|
| 1777361777 | 13.89° C | 88% | 1014.1 hPa | 0 mm | 30.85 m/s, ° | 69 W/m² | - |
| 1777361477 | 13.89° C | 89% | 1014 hPa | 0 mm | 21.01 m/s, ° | 47 W/m² | - |
| 1777361177 | 13.33° C | 89% | 1013.9 hPa | 0 mm | 13.86 m/s, ° | 31 W/m² | - |
| 1777360877 | 13.33° C | 90% | 1013.9 hPa | 0 mm | 12.52 m/s, ° | 28 W/m² | - |
| 1777360577 | 13.33° C | 91% | 1014 hPa | 0 mm | 11.62 m/s, ° | 26 W/m² | - |
| 1777360277 | 12.78° C | 91% | 1013.9 hPa | 0 mm | 11.62 m/s, ° | 26 W/m² | - |
| 1777359977 | 12.78° C | 92% | 1013.9 hPa | 0 mm | 11.62 m/s, ° | 26 W/m² | - |
| 1777359677 | 12.78° C | 93% | 1014.1 hPa | 0 mm | 17.43 m/s, ° | 39 W/m² | - |
| 1777359377 | 12.78° C | 93% | 1014.1 hPa | 0 mm | 17.43 m/s, ° | 39 W/m² | - |
| 1777359077 | 12.78° C | 93% | 1014 hPa | 0 mm | 18.33 m/s, ° | 41 W/m² | - |
| 1777358777 | 12.78° C | 93% | 1013.9 hPa | 0 mm | 16.99 m/s, ° | 38 W/m² | - |
| 1777358476 | 12.22° C | 94% | 1013.9 hPa | 0 mm | 16.09 m/s, ° | 36 W/m² | - |
| 1777358176 | 12.22° C | 94% | 1014.1 hPa | 0 mm | 16.54 m/s, ° | 37 W/m² | - |
| 1777357876 | 12.22° C | 94% | 1014 hPa | 0 mm | 13.86 m/s, ° | 31 W/m² | - |
| 1777357576 | 12.22° C | 94% | 1014.2 hPa | 0 mm | 13.86 m/s, ° | 31 W/m² | - |
| 1777357276 | 11.67° C | 94% | 1014.1 hPa | 0 mm | 13.41 m/s, ° | 30 W/m² | - |
| 1777356976 | 11.67° C | 94% | 1014.2 hPa | 0 mm | 12.52 m/s, ° | 28 W/m² | - |
| 1777356676 | 11.67° C | 94% | 1014.3 hPa | 0 mm | 11.62 m/s, ° | 26 W/m² | - |
| 1777356376 | 11.67° C | 94% | 1014.1 hPa | 0 mm | 9.83 m/s, ° | 22 W/m² | - |
| 1777356076 | 11.67° C | 94% | 1014 hPa | 0 mm | 9.83 m/s, ° | 22 W/m² | - |
| 1777355776 | 11.11° C | 94% | 1014.1 hPa | 0 mm | 8.49 m/s, ° | 19 W/m² | - |
| 1777355476 | 11.11° C | 94% | 1013.9 hPa | 0 mm | 7.15 m/s, ° | 16 W/m² | - |
| 1777355176 | 11.11° C | 94% | 1014 hPa | 0 mm | 7.15 m/s, ° | 16 W/m² | - |
| 1777354876 | 11.11° C | 94% | 1013.9 hPa | 0 mm | 2.24 m/s, ° | 5 W/m² | - |
| 1777354576 | 11.11° C | 94% | 1014 hPa | 0 mm | 1.34 m/s, ° | 3 W/m² | - |
* Rain latest hour (hover to see other rain measurements)
** Current wind speed in m/s (hover to see current wind gust speed)